Pagrindinis puslapis
METAR-TAF:

METAR-TAF

Oro uostai :

Oslas, Norvegija

platuma: 60-12N, ilguma: 011-05E, Aukštis: 208 m

Dabartinis oras

Ataskaita buvo paskelbta 18 minutes, ne 08:20 UTC
Vėjas 6 kt nuo kintamojo kryptimis
Temperatūra 4°C
Drėgmė 48%
Slėgis 986 hPa
Matomumas 10 km arba daugiau
nėra debesų žemiau 1500 m ir nėra kamuolinių lietaus debesų

METAR: ENGM 230820Z VRB06KT CAVOK 04/M06 Q0986 NOSIG

Laikas: 09:38 (08:38 UTC)

Prognozė

Ataskaita buvo paskelbta 20 minutes, ne 08:18 UTC
Prognozė galioja nuo 23 metu 08 UTC su 24 metu 06 UTC
Vėjas 8 kt iš Pietų
Matomumas 10 km arba daugiau
nėra debesų žemiau 1500 m ir nėra kamuolinių lietaus debesų
Tapsmas
nuo 23 metu 11 UTC su 23 metu 13 UTC
Vėjas 10 kt iš Šiaurės Vakarų
Tapsmas
nuo 24 metu 04 UTC su 24 metu 06 UTC
Vėjas 8 kt iš Pietų

TAF: ENGM 230818Z 2308/2406 17008KT CAVOK BECMG 2311/2313 32010KT BECMG 2404/2406 19008KT

Orai ataskaitas ir orų prognozės (METAR, TAF).

turimą stotys yra geltonos ir raudonos taškus žemėlapyje.

Perkelti pele per norėdami pamatyti stoties vardą.

Tada spustelėkite, norėdami matyti oro stebėjimo ir prognozės.

Norėdami pakeisti žemėlapį: spustelėkite ant žalios mygtukų su juodo kryžiaus žemyn,; žalią mygtuką su brūkšneliu, jei norite nutolinti; arba žalių rodyklių gretimoms žemėlapius.


METAR-TAF: